KBCT/BCT METAR and TAF weather

Enter ICAO airport designator
Station Type Date Time Source
KBCT METAR 2019/12/14 03:47 UTC NOAA

KBCT 140347Z 21007KT 10SM CLR 23/20 A2984


Station Type Date Time Source
KBCT Decoded METAR 2019/12/14 03:47 UTC NOAA

Boca Raton, Boca Raton Airport, FL, United States (KBCT) 26-22-43N 080-06-28W
Dec 13, 2019 - 10:47 PM EST / 2019.12.14 0347 UTC
Wind: from the SSW (210 degrees) at 8 MPH (7 KT):0
Visibility: 10 mile(s):0
Sky conditions: clear
Temperature: 73 F (23 C)
Dew Point: 68 F (20 C)
Relative Humidity: 83%
Pressure (altimeter): 29.84 in. Hg (1010 hPa)
ob: KBCT 140347Z 21007KT 10SM CLR 23/20 A2984
cycle: 4

Station Type Date Time Source
KBCT TAF UTC NOAA

Error!

Example: see airport list